createdAt,value
2018-11-28T00:00:32.674Z,65.38
2018-11-28T00:03:02.962Z,65.00
2018-11-28T00:05:31.917Z,64.51
2018-11-28T00:08:00.760Z,64.57
2018-11-28T00:10:29.957Z,64.97
2018-11-28T00:12:58.849Z,63.03
2018-11-28T00:15:27.834Z,63.46
2018-11-28T00:17:57.060Z,63.88
2018-11-28T00:20:25.900Z,64.51
2018-11-28T00:22:55.089Z,64.26
2018-11-28T00:25:23.967Z,63.12
2018-11-28T00:27:52.927Z,62.81
2018-11-28T00:30:23.949Z,63.16
2018-11-28T00:32:52.831Z,64.13
2018-11-28T00:35:25.359Z,63.50
2018-11-28T00:37:54.175Z,63.14
2018-11-28T00:40:24.010Z,63.83
2018-11-28T00:42:53.051Z,64.23
2018-11-28T00:45:24.055Z,64.06
2018-11-28T00:47:53.269Z,64.08
2018-11-28T00:50:25.676Z,64.11
2018-11-28T00:52:54.646Z,63.62
2018-11-28T00:55:23.500Z,63.07
2018-11-28T00:57:52.650Z,64.11
2018-11-28T01:00:27.235Z,63.16
2018-11-28T01:02:56.136Z,62.37
2018-11-28T01:05:25.026Z,62.83
2018-11-28T01:07:54.941Z,62.66
2018-11-28T01:10:24.996Z,62.61
2018-11-28T01:12:54.491Z,63.11
2018-11-28T01:15:23.751Z,63.11
2018-11-28T01:17:52.892Z,63.65
2018-11-28T01:20:23.333Z,62.50
2018-11-28T01:22:52.139Z,63.29
2018-11-28T01:25:21.974Z,63.34
2018-11-28T01:27:51.619Z,63.48
2018-11-28T01:30:21.797Z,64.30
2018-11-28T01:32:51.053Z,64.42
2018-11-28T01:35:20.742Z,65.01
2018-11-28T01:37:49.646Z,65.90
2018-11-28T01:40:20.737Z,66.52
2018-11-28T01:42:49.793Z,67.42
2018-11-28T01:45:22.011Z,67.28
2018-11-28T01:47:50.866Z,68.00
2018-11-28T01:50:20.742Z,67.76
2018-11-28T01:52:49.600Z,67.78
2018-11-28T01:55:19.998Z,68.66
2018-11-28T01:57:48.996Z,68.90
2018-11-28T02:00:20.315Z,68.66
2018-11-28T02:02:57.958Z,69.72
2018-11-28T02:05:27.138Z,69.40
2018-11-28T02:07:56.075Z,69.88
2018-11-28T02:10:24.936Z,70.34
2018-11-28T02:12:53.595Z,70.67
2018-11-28T02:15:25.971Z,70.19
2018-11-28T02:17:55.224Z,70.10
2018-11-28T02:20:24.155Z,70.64
2018-11-28T02:22:53.345Z,71.36
2018-11-28T02:25:22.301Z,71.53
2018-11-28T02:27:51.307Z,71.71
2018-11-28T02:30:20.861Z,71.86
2018-11-28T02:32:50.637Z,71.86
2018-11-28T02:35:20.007Z,72.12
2018-11-28T02:37:49.789Z,72.26
2018-11-28T02:40:19.425Z,71.58
2018-11-28T02:42:49.223Z,71.39
2018-11-28T02:45:18.986Z,72.19
2018-11-28T02:47:48.236Z,71.95
2018-11-28T02:50:17.148Z,71.82
2018-11-28T02:52:46.367Z,72.10
2018-11-28T02:55:16.171Z,72.31
2018-11-28T02:57:46.290Z,71.47
2018-11-28T03:00:23.834Z,72.50
2018-11-28T03:02:52.829Z,72.59
2018-11-28T03:05:21.977Z,72.46
2018-11-28T03:07:50.868Z,72.51
2018-11-28T03:10:21.173Z,73.19
2018-11-28T03:12:50.257Z,73.52
2018-11-28T03:15:38.105Z,72.81
2018-11-28T03:18:08.332Z,73.43
2018-11-28T03:20:37.225Z,72.53
2018-11-28T03:23:06.665Z,73.49
2018-11-28T03:25:35.825Z,73.14
2018-11-28T03:28:05.028Z,73.50
2018-11-28T03:30:33.934Z,73.34
2018-11-28T03:33:02.889Z,72.76
2018-11-28T03:35:31.735Z,73.04
2018-11-28T03:38:00.716Z,73.12
2018-11-28T03:40:29.551Z,73.19
2018-11-28T03:42:58.692Z,72.82
2018-11-28T03:45:27.503Z,72.90
2018-11-28T03:47:56.401Z,72.69
2018-11-28T03:50:25.655Z,72.64
2018-11-28T03:52:54.551Z,72.53
2018-11-28T03:55:23.382Z,72.25
2018-11-28T03:57:52.528Z,71.68
2018-11-28T04:00:22.223Z,71.63
2018-11-28T04:02:51.418Z,71.79
2018-11-28T04:05:20.277Z,71.50
2018-11-28T04:07:49.315Z,71.85
2018-11-28T04:10:18.571Z,71.84
2018-11-28T04:12:47.450Z,71.00
2018-11-28T04:15:19.292Z,70.69
2018-11-28T04:17:48.257Z,70.40
2018-11-28T04:20:18.049Z,70.22
2018-11-28T04:22:46.881Z,70.92
2018-11-28T04:25:17.236Z,70.51
2018-11-28T04:27:46.238Z,70.90
2018-11-28T04:30:23.050Z,71.01
2018-11-28T04:32:52.711Z,70.92
2018-11-28T04:35:21.600Z,71.58
2018-11-28T04:37:50.484Z,71.53
2018-11-28T04:40:20.255Z,71.92
2018-11-28T04:42:49.605Z,71.54
2018-11-28T04:45:20.005Z,71.51
2018-11-28T04:47:48.956Z,72.00
2018-11-28T04:50:17.874Z,71.52
2018-11-28T04:52:46.999Z,72.39
2018-11-28T05:02:14.790Z,73.16
2018-11-28T05:04:43.682Z,73.43
2018-11-28T05:07:44.080Z,73.42
2018-11-28T05:10:17.507Z,73.67
2018-11-28T05:12:46.563Z,74.43
2018-11-28T05:15:16.515Z,74.14
2018-11-28T05:17:47.373Z,75.07
2018-11-28T05:20:17.332Z,74.57
2018-11-28T05:22:46.198Z,74.78
2018-11-28T05:25:16.370Z,75.39
2018-11-28T05:27:45.481Z,75.60
2018-11-28T05:30:16.475Z,75.36
2018-11-28T05:32:45.316Z,75.92
2018-11-28T05:35:36.917Z,76.33
2018-11-28T05:38:13.386Z,76.08
2018-11-28T05:40:43.378Z,76.75
2018-11-28T05:43:12.341Z,76.56
2018-11-28T05:45:41.711Z,76.67
2018-11-28T05:48:10.610Z,76.82
2018-11-28T05:50:39.884Z,76.99
2018-11-28T05:53:08.773Z,76.73
2018-11-28T05:55:37.928Z,77.52
2018-11-28T05:58:07.121Z,77.06
2018-11-28T06:00:41.074Z,77.87
2018-11-28T06:03:11.231Z,77.74
2018-11-28T06:05:41.221Z,77.69
2018-11-28T06:08:10.149Z,78.42
2018-11-28T06:10:39.195Z,78.47
2018-11-28T06:13:08.138Z,78.62
2018-11-28T06:15:37.620Z,78.25
2018-11-28T06:18:07.933Z,78.42
2018-11-28T06:20:36.994Z,79.02
2018-11-28T06:23:06.039Z,78.63
2018-11-28T06:25:35.044Z,78.88
2018-11-28T06:28:03.937Z,79.13
2018-11-28T06:30:32.835Z,79.10
2018-11-28T06:33:01.738Z,78.98
2018-11-28T06:35:30.866Z,79.45
2018-11-28T06:37:59.880Z,79.61
2018-11-28T06:40:28.887Z,79.28
2018-11-28T06:42:57.956Z,79.49
2018-11-28T06:45:26.801Z,78.77
2018-11-28T06:47:55.988Z,79.36
2018-11-28T06:50:24.997Z,78.92
2018-11-28T06:52:54.016Z,79.38
2018-11-28T06:55:23.490Z,78.73
2018-11-28T06:57:52.317Z,78.85
2018-11-28T07:00:22.865Z,79.28
2018-11-28T07:02:52.944Z,78.75
2018-11-28T07:05:22.333Z,79.00
2018-11-28T07:07:51.380Z,79.02
2018-11-28T07:10:21.216Z,78.43
2018-11-28T07:12:50.370Z,78.15
2018-11-28T07:15:20.609Z,78.21
2018-11-28T07:17:49.674Z,78.16
2018-11-28T07:20:18.931Z,78.22
2018-11-28T07:22:47.808Z,78.73
2018-11-28T07:25:18.606Z,77.91
2018-11-28T07:27:48.379Z,78.35
2018-11-28T07:30:21.123Z,77.97
2018-11-28T07:32:51.693Z,77.77
2018-11-28T07:35:20.625Z,77.95
2018-11-28T07:37:52.586Z,77.35
2018-11-28T07:40:24.767Z,77.81
2018-11-28T07:43:05.488Z,77.51
2018-11-28T07:45:34.443Z,78.12
2018-11-28T07:48:03.725Z,77.53
2018-11-28T07:50:32.632Z,77.69
2018-11-28T07:53:01.812Z,76.90
2018-11-28T07:55:30.727Z,76.84
2018-11-28T07:57:59.960Z,76.93
2018-11-28T08:00:29.289Z,76.06
2018-11-28T08:02:58.400Z,76.07
2018-11-28T08:05:27.422Z,76.35
2018-11-28T08:07:56.979Z,76.73
2018-11-28T08:10:26.890Z,75.84
2018-11-28T08:12:57.713Z,75.66
2018-11-28T08:15:27.022Z,75.59
2018-11-28T08:17:56.058Z,74.78
2018-11-28T08:20:24.863Z,74.87
2018-11-28T08:22:54.124Z,75.33
2018-11-28T08:25:27.664Z,75.30
2018-11-28T08:27:52.481Z,74.84
2018-11-28T08:30:23.154Z,75.00
2018-11-28T08:32:52.401Z,73.75
2018-11-28T08:35:21.304Z,72.92
2018-11-28T08:37:50.199Z,73.12
2018-11-28T08:40:24.328Z,73.04
2018-11-28T08:42:53.749Z,73.06
2018-11-28T08:45:22.956Z,72.29
2018-11-28T08:47:52.925Z,72.85
2018-11-28T08:50:23.113Z,72.44
2018-11-28T08:52:52.054Z,72.69
2018-11-28T08:55:23.522Z,71.20
2018-11-28T08:57:53.324Z,71.89
2018-11-28T09:00:24.232Z,70.50
2018-11-28T09:02:54.170Z,70.46
2018-11-28T09:05:23.423Z,70.41
2018-11-28T09:07:52.412Z,70.00
2018-11-28T09:10:21.474Z,69.61
2018-11-28T09:12:50.978Z,69.36
2018-11-28T09:15:27.032Z,69.43
2018-11-28T09:17:56.280Z,68.30
2018-11-28T09:20:25.219Z,68.15
2018-11-28T09:22:54.278Z,67.56
2018-11-28T09:25:23.284Z,67.77
2018-11-28T09:27:56.509Z,67.51
2018-11-28T09:30:25.438Z,67.19
2018-11-28T09:32:54.587Z,67.23
2018-11-28T09:35:23.690Z,66.89
2018-11-28T09:37:52.889Z,66.15
2018-11-28T09:40:25.068Z,65.56
2018-11-28T09:42:55.030Z,65.51
2018-11-28T09:45:24.185Z,65.97
2018-11-28T09:47:53.201Z,65.25
2018-11-28T09:50:23.205Z,65.67
2018-11-28T09:52:52.432Z,64.38
2018-11-28T09:55:22.859Z,65.00
2018-11-28T09:57:52.115Z,64.85
2018-11-28T10:00:21.943Z,63.71
2018-11-28T10:02:51.970Z,64.21
2018-11-28T10:05:22.848Z,64.09
2018-11-28T10:07:51.840Z,64.11
2018-11-28T10:10:20.823Z,63.96
2018-11-28T10:12:49.848Z,63.54
2018-11-28T10:15:25.259Z,63.03
2018-11-28T10:17:54.557Z,62.96
2018-11-28T10:20:23.583Z,62.74
2018-11-28T10:22:53.308Z,62.54
2018-11-28T10:25:25.530Z,61.60
2018-11-28T10:28:04.109Z,60.99
2018-11-28T10:30:34.848Z,60.49
2018-11-28T10:33:04.277Z,60.60
2018-11-28T10:35:33.251Z,59.67
2018-11-28T10:38:02.256Z,58.91
2018-11-28T10:40:31.436Z,59.27
2018-11-28T10:43:01.351Z,58.87
2018-11-28T10:45:31.043Z,58.75
2018-11-28T10:48:01.702Z,58.80
2018-11-28T10:50:30.771Z,58.21
2018-11-28T10:52:59.695Z,57.96
2018-11-28T10:55:28.691Z,57.87
2018-11-28T10:57:57.908Z,58.30
2018-11-28T11:00:36.947Z,57.86
2018-11-28T11:03:12.282Z,57.73
2018-11-28T11:05:46.561Z,57.86
2018-11-28T11:08:20.848Z,56.35
2018-11-28T11:10:55.142Z,57.17
2018-11-28T11:13:29.615Z,57.39
2018-11-28T11:15:59.341Z,56.77
2018-11-28T11:18:29.279Z,57.73
2018-11-28T11:20:58.550Z,57.45
2018-11-28T11:23:27.513Z,57.15
2018-11-28T11:25:56.510Z,56.88
2018-11-28T11:28:25.461Z,57.34
2018-11-28T11:30:54.738Z,57.21
2018-11-28T11:33:23.929Z,56.81
2018-11-28T11:35:53.291Z,56.73
2018-11-28T11:38:22.517Z,55.82
2018-11-28T11:40:51.571Z,56.35
2018-11-28T11:43:20.541Z,56.14
2018-11-28T11:45:49.766Z,55.83
2018-11-28T11:48:19.225Z,56.27
2018-11-28T11:50:48.173Z,55.96
2018-11-28T11:53:17.030Z,55.88
2018-11-28T11:55:45.988Z,55.76
2018-11-28T12:05:21.033Z,56.50
2018-11-28T12:07:48.836Z,57.04
2018-11-28T12:10:18.109Z,56.30
2018-11-28T12:12:53.564Z,56.71
2018-11-28T12:15:23.055Z,56.88
2018-11-28T12:17:52.065Z,57.20
2018-11-28T12:20:27.005Z,56.23
2018-11-28T12:22:56.019Z,56.37
2018-11-28T12:25:25.795Z,56.23
2018-11-28T12:27:54.854Z,56.63
2018-11-28T12:30:24.090Z,56.51
2018-11-28T12:32:53.009Z,56.67
2018-11-28T12:35:22.511Z,55.77
2018-11-28T12:37:52.372Z,56.66
2018-11-28T12:40:22.091Z,56.65
2018-11-28T12:42:52.401Z,55.99
2018-11-28T12:45:22.268Z,56.08
2018-11-28T12:47:51.457Z,56.75
2018-11-28T12:50:24.502Z,56.40
2018-11-28T12:52:54.662Z,56.20
2018-11-28T12:55:25.120Z,56.24
2018-11-28T12:57:54.749Z,55.80
2018-11-28T13:00:27.123Z,55.79
2018-11-28T13:02:56.366Z,55.81
2018-11-28T13:05:26.503Z,56.66
2018-11-28T13:07:55.813Z,56.49
2018-11-28T13:10:26.225Z,56.05
2018-11-28T13:12:55.414Z,55.96
2018-11-28T13:15:25.571Z,55.62
2018-11-28T13:17:54.428Z,55.12
2018-11-28T13:20:23.774Z,55.01
2018-11-28T13:22:54.388Z,56.40
2018-11-28T13:25:28.024Z,55.64
2018-11-28T13:27:56.978Z,55.35
2018-11-28T13:30:28.019Z,55.18
2018-11-28T13:32:56.920Z,55.13
2018-11-28T13:35:31.174Z,55.49
2018-11-28T13:38:04.224Z,55.13
2018-11-28T13:40:33.166Z,54.65
2018-11-28T13:43:02.583Z,54.65
2018-11-28T13:45:32.754Z,54.93
2018-11-28T13:48:01.685Z,55.50
2018-11-28T13:50:30.837Z,54.65
2018-11-28T13:53:01.169Z,54.49
2018-11-28T13:55:38.402Z,55.38
2018-11-28T13:58:03.508Z,54.91
2018-11-28T14:00:32.560Z,54.45
2018-11-28T14:03:01.672Z,54.99
2018-11-28T14:05:30.687Z,54.57
2018-11-28T14:07:59.638Z,54.08
2018-11-28T14:10:28.694Z,54.67
2018-11-28T14:12:57.619Z,54.95
2018-11-28T14:15:26.707Z,55.68
2018-11-28T14:17:59.818Z,56.23
2018-11-28T14:20:31.587Z,56.14
2018-11-28T14:23:00.924Z,56.52
2018-11-28T14:25:29.876Z,55.98
2018-11-28T14:27:58.792Z,56.28
2018-11-28T14:30:28.005Z,55.89
2018-11-28T14:32:57.413Z,56.47
2018-11-28T14:35:26.338Z,56.44
2018-11-28T14:37:55.844Z,57.05
2018-11-28T14:40:25.642Z,57.25
2018-11-28T14:42:55.917Z,57.24
2018-11-28T14:45:24.978Z,57.22
2018-11-28T14:47:54.183Z,57.70
2018-11-28T14:50:25.009Z,57.29
2018-11-28T14:52:55.223Z,56.87
2018-11-28T14:55:26.969Z,57.74
2018-11-28T14:57:56.213Z,57.71
2018-11-28T15:00:26.238Z,58.14
2018-11-28T15:02:56.572Z,57.71
2018-11-28T15:05:42.432Z,58.15
2018-11-28T15:08:14.617Z,58.43
2018-11-28T15:10:55.230Z,58.13
2018-11-28T15:13:24.230Z,58.37
2018-11-28T15:15:53.129Z,58.39
2018-11-28T15:18:22.678Z,58.25
2018-11-28T15:20:51.533Z,58.80
2018-11-28T15:23:20.732Z,58.71
2018-11-28T15:25:50.400Z,58.96
2018-11-28T15:28:20.111Z,59.02
2018-11-28T15:30:49.205Z,58.86
2018-11-28T15:33:18.316Z,58.92
2018-11-28T15:35:47.753Z,59.60
2018-11-28T15:38:16.857Z,59.35
2018-11-28T15:40:46.840Z,59.37
2018-11-28T15:43:15.892Z,59.01
2018-11-28T15:45:44.817Z,59.61
2018-11-28T15:48:13.696Z,59.42
2018-11-28T15:50:42.728Z,59.12
2018-11-28T15:53:11.719Z,59.55
2018-11-28T15:55:42.382Z,59.64
2018-11-28T15:58:12.596Z,59.93
2018-11-28T16:00:41.792Z,59.73
2018-11-28T16:03:10.603Z,59.54
2018-11-28T16:05:39.875Z,60.28
2018-11-28T16:08:09.184Z,59.98
2018-11-28T16:10:42.369Z,59.75
2018-11-28T16:13:11.780Z,59.72
2018-11-28T16:15:46.581Z,60.15
2018-11-28T16:18:16.644Z,59.47
2018-11-28T16:20:45.964Z,59.69
2018-11-28T16:23:15.650Z,60.39
2018-11-28T16:25:49.247Z,59.84
2018-11-28T16:28:18.636Z,59.64
2018-11-28T16:30:47.529Z,60.31
2018-11-28T16:33:16.598Z,59.67
2018-11-28T16:35:45.569Z,59.88
2018-11-28T16:38:14.664Z,59.44
2018-11-28T16:40:43.667Z,60.07
2018-11-28T16:43:12.673Z,60.41
2018-11-28T16:45:42.010Z,59.99
2018-11-28T16:48:10.948Z,60.27
2018-11-28T16:50:39.972Z,59.87
2018-11-28T16:53:08.888Z,60.12
2018-11-28T16:55:38.441Z,60.91
2018-11-28T16:58:08.791Z,59.91
2018-11-28T17:00:40.108Z,60.47
2018-11-28T17:03:09.163Z,60.22
2018-11-28T17:05:38.293Z,60.41
2018-11-28T17:08:08.953Z,61.02
2018-11-28T17:10:38.105Z,60.94
2018-11-28T17:13:10.728Z,61.40
2018-11-28T17:15:39.739Z,60.84
2018-11-28T17:18:08.712Z,61.47
2018-11-28T17:20:40.590Z,61.13
2018-11-28T17:23:09.556Z,61.33
2018-11-28T17:25:38.824Z,62.17
2018-11-28T17:28:08.930Z,62.28
2018-11-28T17:30:38.325Z,61.65
2018-11-28T17:33:07.465Z,62.47
2018-11-28T17:35:36.396Z,61.91
2018-11-28T17:38:06.062Z,62.10
2018-11-28T17:40:34.971Z,62.17
2018-11-28T17:43:04.024Z,62.32
2018-11-28T17:45:33.255Z,62.81
2018-11-28T17:48:02.228Z,62.91
2018-11-28T17:50:31.348Z,62.71
2018-11-28T17:53:07.406Z,63.28
2018-11-28T17:55:39.782Z,63.08
2018-11-28T17:58:08.642Z,63.07
2018-11-28T18:00:37.559Z,62.92
2018-11-28T18:03:06.540Z,63.31
2018-11-28T18:05:35.612Z,63.79
2018-11-28T18:08:04.667Z,63.80
2018-11-28T18:10:33.588Z,63.91
2018-11-28T18:13:08.774Z,63.42
2018-11-28T18:15:38.042Z,63.70
2018-11-28T18:18:09.050Z,63.74
2018-11-28T18:20:37.892Z,64.32
2018-11-28T18:23:09.338Z,64.18
2018-11-28T18:25:39.106Z,64.17
2018-11-28T18:28:08.983Z,64.38
2018-11-28T18:30:39.823Z,64.68
2018-11-28T18:33:10.437Z,65.04
2018-11-28T18:35:39.653Z,65.56
2018-11-28T18:38:08.910Z,65.03
2018-11-28T18:40:38.777Z,65.23
2018-11-28T18:43:09.200Z,65.86
2018-11-28T18:45:40.952Z,65.75
2018-11-28T18:48:10.158Z,65.94
2018-11-28T18:50:39.553Z,66.70
2018-11-28T18:53:10.707Z,66.88
2018-11-28T18:55:41.642Z,67.26
2018-11-28T18:58:13.517Z,67.47
2018-11-28T19:00:42.521Z,67.35
2018-11-28T19:03:12.100Z,67.71
2018-11-28T19:05:42.187Z,67.87
2018-11-28T19:08:13.556Z,68.08
2018-11-28T19:10:43.214Z,68.18
2018-11-28T19:13:12.668Z,68.79
2018-11-28T19:15:42.345Z,68.59
2018-11-28T19:18:11.235Z,69.16
2018-11-28T19:20:40.181Z,68.67
2018-11-28T19:23:09.608Z,68.87
2018-11-28T19:25:38.523Z,69.02
2018-11-28T19:28:07.527Z,69.49
2018-11-28T19:30:41.712Z,69.72
2018-11-28T19:33:13.176Z,70.02
2018-11-28T19:35:42.687Z,70.39
2018-11-28T19:38:13.489Z,70.47
2018-11-28T19:40:51.915Z,70.75
2018-11-28T19:43:21.633Z,70.58
2018-11-28T19:45:51.157Z,71.28
2018-11-28T19:48:20.654Z,71.37
2018-11-28T19:50:49.568Z,71.08
2018-11-28T19:53:18.922Z,71.58
2018-11-28T19:55:47.898Z,71.71
2018-11-28T19:58:17.157Z,71.27
2018-11-28T20:00:46.997Z,71.92
2018-11-28T20:03:15.985Z,71.92
2018-11-28T20:05:44.983Z,71.66
2018-11-28T20:08:14.356Z,71.50
2018-11-28T20:10:43.604Z,71.91
2018-11-28T20:13:12.632Z,71.67
2018-11-28T20:15:43.969Z,72.27
2018-11-28T20:18:13.415Z,72.35
2018-11-28T20:20:43.032Z,72.16
2018-11-28T20:23:13.100Z,72.39
2018-11-28T20:25:42.433Z,72.56
2018-11-28T20:28:12.138Z,72.65
2018-11-28T20:30:46.028Z,72.24
2018-11-28T20:33:16.410Z,72.96
2018-11-28T20:35:48.358Z,73.04
2018-11-28T20:38:27.603Z,72.86
2018-11-28T20:40:56.695Z,72.66
2018-11-28T20:43:26.491Z,72.54
2018-11-28T20:45:55.905Z,73.11
2018-11-28T20:48:25.269Z,73.22
2018-11-28T20:50:54.463Z,72.94
2018-11-28T20:53:24.321Z,73.08
2018-11-28T20:55:53.661Z,73.30
2018-11-28T20:58:23.124Z,73.19
2018-11-28T21:00:52.625Z,73.68
2018-11-28T21:03:22.131Z,73.35
2018-11-28T21:05:51.595Z,73.10
2018-11-28T21:08:21.216Z,73.86
2018-11-28T21:10:50.498Z,73.87
2018-11-28T21:13:19.876Z,74.16
2018-11-28T21:15:48.984Z,73.67
2018-11-28T21:18:18.920Z,73.83
2018-11-28T21:20:48.149Z,74.35
2018-11-28T21:23:19.334Z,74.05
2018-11-28T21:25:49.104Z,74.14
2018-11-28T21:28:17.954Z,74.35
2018-11-28T21:30:46.970Z,74.56
2018-11-28T21:33:16.072Z,74.70
2018-11-28T21:35:51.991Z,74.97
2018-11-28T21:38:21.044Z,74.65
2018-11-28T21:40:50.479Z,74.83
2018-11-28T21:43:19.369Z,74.97
2018-11-28T21:45:49.214Z,74.59
2018-11-28T21:48:18.303Z,74.59
2018-11-28T21:50:47.826Z,74.51
2018-11-28T21:53:17.235Z,75.28
2018-11-28T21:55:46.136Z,74.81
2018-11-28T21:58:15.354Z,74.44
2018-11-28T22:00:53.087Z,74.75
2018-11-28T22:03:21.950Z,74.34
2018-11-28T22:05:51.421Z,75.14
2018-11-28T22:08:21.414Z,75.28
2018-11-28T22:10:50.722Z,74.99
2018-11-28T22:13:19.905Z,74.89
2018-11-28T22:15:49.190Z,74.42
2018-11-28T22:18:18.549Z,74.11
2018-11-28T22:20:47.910Z,74.09
2018-11-28T22:23:17.001Z,74.06
2018-11-28T22:25:46.148Z,74.10
2018-11-28T22:28:15.301Z,73.81
2018-11-28T22:30:44.635Z,74.22
2018-11-28T22:33:13.710Z,73.29
2018-11-28T22:35:43.109Z,73.32
2018-11-28T22:38:12.439Z,74.23
2018-11-28T22:40:41.811Z,74.09
2018-11-28T22:43:11.018Z,73.53
2018-11-28T22:45:40.225Z,73.71
2018-11-28T22:48:09.292Z,73.94
2018-11-28T22:50:38.298Z,73.81
2018-11-28T22:53:07.319Z,73.93
2018-11-28T22:55:36.258Z,73.45
2018-11-28T22:58:05.179Z,73.69
2018-11-28T23:00:39.273Z,74.34
2018-11-28T23:03:09.854Z,73.45
2018-11-28T23:05:45.007Z,74.11
2018-11-28T23:08:15.827Z,74.25
2018-11-28T23:10:45.164Z,74.20
2018-11-28T23:13:15.158Z,74.42
2018-11-28T23:15:44.112Z,73.93
2018-11-28T23:18:13.345Z,74.11
2018-11-28T23:20:43.375Z,74.40
2018-11-28T23:23:12.378Z,74.18
2018-11-28T23:25:41.221Z,73.85
2018-11-28T23:28:10.300Z,74.52
2018-11-28T23:30:39.591Z,74.73
2018-11-28T23:33:09.275Z,75.09
2018-11-28T23:35:38.400Z,75.08
2018-11-28T23:38:07.988Z,74.67
2018-11-28T23:40:36.849Z,74.69
2018-11-28T23:43:06.096Z,74.57
2018-11-28T23:45:36.630Z,74.76
2018-11-28T23:48:05.789Z,75.21
2018-11-28T23:50:34.581Z,75.34
2018-11-28T23:53:03.762Z,74.96
2018-11-28T23:55:33.052Z,75.10
2018-11-28T23:58:01.897Z,75.72
